sensor_id;sensor_type;location;lat;lon;timestamp;temperature;humidity
15407;DHT22;7802;51.568;6.364;2022-12-10T00:02:03;-0.30;99.90
15407;DHT22;7802;51.568;6.364;2022-12-10T00:04:50;0.80;99.90
15407;DHT22;7802;51.568;6.364;2022-12-10T00:07:37;-0.30;99.90
15407;DHT22;7802;51.568;6.364;2022-12-10T00:10:24;-0.30;99.90
15407;DHT22;7802;51.568;6.364;2022-12-10T00:13:12;-0.30;99.90
15407;DHT22;7802;51.568;6.364;2022-12-10T00:15:59;-0.30;99.90
15407;DHT22;7802;51.568;6.364;2022-12-10T00:18:47;-0.30;99.90
15407;DHT22;7802;51.568;6.364;2022-12-10T00:21:35;-0.30;99.90
15407;DHT22;7802;51.568;6.364;2022-12-10T00:24:22;-0.30;99.90
15407;DHT22;7802;51.568;6.364;2022-12-10T00:27:09;-0.50;99.90
15407;DHT22;7802;51.568;6.364;2022-12-10T00:29:57;0.60;99.90
15407;DHT22;7802;51.568;6.364;2022-12-10T00:32:44;-0.60;99.90
15407;DHT22;7802;51.568;6.364;2022-12-10T00:35:35;-0.60;99.90
15407;DHT22;7802;51.568;6.364;2022-12-10T00:38:22;-0.60;99.90
15407;DHT22;7802;51.568;6.364;2022-12-10T00:41:10;-1.00;99.90
15407;DHT22;7802;51.568;6.364;2022-12-10T00:43:58;0.90;99.90
15407;DHT22;7802;51.568;6.364;2022-12-10T00:46:47;-0.10;99.90
15407;DHT22;7802;51.568;6.364;2022-12-10T00:49:34;1.30;99.90
15407;DHT22;7802;51.568;6.364;2022-12-10T00:52:21;-0.60;99.90
15407;DHT22;7802;51.568;6.364;2022-12-10T00:55:08;-0.70;99.90
15407;DHT22;7802;51.568;6.364;2022-12-10T00:57:55;-0.70;99.90
15407;DHT22;7802;51.568;6.364;2022-12-10T01:00:42;-0.70;99.90
15407;DHT22;7802;51.568;6.364;2022-12-10T01:03:29;-0.70;99.90
15407;DHT22;7802;51.568;6.364;2022-12-10T01:06:18;-0.70;99.90
15407;DHT22;7802;51.568;6.364;2022-12-10T01:09:08;1.00;99.90
15407;DHT22;7802;51.568;6.364;2022-12-10T01:11:57;-0.80;99.90
15407;DHT22;7802;51.568;6.364;2022-12-10T01:14:45;-0.80;99.90
15407;DHT22;7802;51.568;6.364;2022-12-10T01:17:31;-0.80;99.90
15407;DHT22;7802;51.568;6.364;2022-12-10T01:20:20;1.10;99.90
15407;DHT22;7802;51.568;6.364;2022-12-10T01:23:08;-0.70;99.90
15407;DHT22;7802;51.568;6.364;2022-12-10T01:25:59;0.10;99.90
15407;DHT22;7802;51.568;6.364;2022-12-10T01:28:48;-0.70;99.90
15407;DHT22;7802;51.568;6.364;2022-12-10T01:31:37;-0.10;99.90
15407;DHT22;7802;51.568;6.364;2022-12-10T01:34:25;0.60;99.90
15407;DHT22;7802;51.568;6.364;2022-12-10T01:37:16;0.70;99.90
15407;DHT22;7802;51.568;6.364;2022-12-10T01:40:04;1.20;99.90
15407;DHT22;7802;51.568;6.364;2022-12-10T01:42:52;-0.90;99.90
15407;DHT22;7802;51.568;6.364;2022-12-10T01:45:39;-0.90;99.90
15407;DHT22;7802;51.568;6.364;2022-12-10T01:48:26;-0.80;99.90
15407;DHT22;7802;51.568;6.364;2022-12-10T01:51:15;-0.90;99.90
15407;DHT22;7802;51.568;6.364;2022-12-10T01:54:05;-0.90;99.90
15407;DHT22;7802;51.568;6.364;2022-12-10T01:56:58;-0.90;99.90
15407;DHT22;7802;51.568;6.364;2022-12-10T01:59:47;-0.90;99.90
15407;DHT22;7802;51.568;6.364;2022-12-10T02:02:41;-0.90;99.90
15407;DHT22;7802;51.568;6.364;2022-12-10T02:05:34;-1.00;99.90
15407;DHT22;7802;51.568;6.364;2022-12-10T02:08:26;-0.90;99.90
15407;DHT22;7802;51.568;6.364;2022-12-10T02:11:19;-0.90;99.90
15407;DHT22;7802;51.568;6.364;2022-12-10T02:14:12;-1.10;99.90
15407;DHT22;7802;51.568;6.364;2022-12-10T02:17:05;-1.10;99.90
15407;DHT22;7802;51.568;6.364;2022-12-10T02:20:04;-1.10;99.90
15407;DHT22;7802;51.568;6.364;2022-12-10T02:22:56;-1.10;99.90
15407;DHT22;7802;51.568;6.364;2022-12-10T02:25:48;-1.10;99.90
15407;DHT22;7802;51.568;6.364;2022-12-10T02:28:45;-0.80;99.90
15407;DHT22;7802;51.568;6.364;2022-12-10T02:31:37;-0.70;99.90
15407;DHT22;7802;51.568;6.364;2022-12-10T02:34:27;-1.20;99.90
15407;DHT22;7802;51.568;6.364;2022-12-10T02:37:21;-1.20;99.90
15407;DHT22;7802;51.568;6.364;2022-12-10T02:40:17;-1.10;99.90
15407;DHT22;7802;51.568;6.364;2022-12-10T02:43:12;-1.10;99.90
15407;DHT22;7802;51.568;6.364;2022-12-10T02:46:02;-1.10;99.90
15407;DHT22;7802;51.568;6.364;2022-12-10T02:48:51;-0.50;99.90
15407;DHT22;7802;51.568;6.364;2022-12-10T02:51:39;-1.10;99.90
15407;DHT22;7802;51.568;6.364;2022-12-10T02:54:39;-1.10;99.90
15407;DHT22;7802;51.568;6.364;2022-12-10T02:57:32;-1.10;99.90
15407;DHT22;7802;51.568;6.364;2022-12-10T03:00:23;-1.10;99.90
15407;DHT22;7802;51.568;6.364;2022-12-10T03:03:28;-1.10;99.90
15407;DHT22;7802;51.568;6.364;2022-12-10T03:06:19;-1.10;99.90
15407;DHT22;7802;51.568;6.364;2022-12-10T03:09:14;0.00;99.90
15407;DHT22;7802;51.568;6.364;2022-12-10T03:12:08;-1.20;99.90
15407;DHT22;7802;51.568;6.364;2022-12-10T03:15:00;-1.20;99.90
15407;DHT22;7802;51.568;6.364;2022-12-10T03:17:50;-1.30;99.90
15407;DHT22;7802;51.568;6.364;2022-12-10T03:20:43;-1.30;99.90
15407;DHT22;7802;51.568;6.364;2022-12-10T03:23:52;0.60;99.90
15407;DHT22;7802;51.568;6.364;2022-12-10T03:26:39;-1.30;99.90
15407;DHT22;7802;51.568;6.364;2022-12-10T03:29:32;-1.30;99.90
15407;DHT22;7802;51.568;6.364;2022-12-10T03:32:21;-1.40;99.90
15407;DHT22;7802;51.568;6.364;2022-12-10T03:35:11;-1.40;99.90
15407;DHT22;7802;51.568;6.364;2022-12-10T03:37:59;-1.40;99.90
15407;DHT22;7802;51.568;6.364;2022-12-10T03:40:47;-1.40;99.90
15407;DHT22;7802;51.568;6.364;2022-12-10T03:43:34;0.10;99.90
15407;DHT22;7802;51.568;6.364;2022-12-10T03:46:22;-1.50;99.90
15407;DHT22;7802;51.568;6.364;2022-12-10T03:49:10;0.80;99.90
15407;DHT22;7802;51.568;6.364;2022-12-10T03:51:57;-1.40;99.90
15407;DHT22;7802;51.568;6.364;2022-12-10T03:54:44;-1.40;99.90
15407;DHT22;7802;51.568;6.364;2022-12-10T03:57:31;-1.30;99.90
15407;DHT22;7802;51.568;6.364;2022-12-10T04:00:19;-1.20;99.90
15407;DHT22;7802;51.568;6.364;2022-12-10T04:03:06;-1.10;99.90
15407;DHT22;7802;51.568;6.364;2022-12-10T04:05:53;-1.00;99.90
15407;DHT22;7802;51.568;6.364;2022-12-10T04:08:40;-0.90;99.90
15407;DHT22;7802;51.568;6.364;2022-12-10T04:11:27;0.40;99.90
15407;DHT22;7802;51.568;6.364;2022-12-10T04:14:15;-0.90;99.90
15407;DHT22;7802;51.568;6.364;2022-12-10T04:17:20;-0.80;99.90
15407;DHT22;7802;51.568;6.364;2022-12-10T04:20:08;-0.70;99.90
15407;DHT22;7802;51.568;6.364;2022-12-10T04:23:15;-0.80;99.90
15407;DHT22;7802;51.568;6.364;2022-12-10T04:26:21;-0.80;99.90
15407;DHT22;7802;51.568;6.364;2022-12-10T04:29:28;-0.80;99.90
15407;DHT22;7802;51.568;6.364;2022-12-10T04:32:17;-0.70;99.90
15407;DHT22;7802;51.568;6.364;2022-12-10T04:35:05;1.20;99.90
15407;DHT22;7802;51.568;6.364;2022-12-10T04:37:52;-0.70;99.90
15407;DHT22;7802;51.568;6.364;2022-12-10T04:40:39;1.20;99.90
15407;DHT22;7802;51.568;6.364;2022-12-10T04:43:26;-0.70;99.90
15407;DHT22;7802;51.568;6.364;2022-12-10T04:46:14;-0.60;99.90
15407;DHT22;7802;51.568;6.364;2022-12-10T04:49:02;-0.60;99.90
15407;DHT22;7802;51.568;6.364;2022-12-10T04:51:51;-0.40;99.90
15407;DHT22;7802;51.568;6.364;2022-12-10T04:54:39;0.70;99.90
15407;DHT22;7802;51.568;6.364;2022-12-10T04:57:26;-0.80;99.90
15407;DHT22;7802;51.568;6.364;2022-12-10T05:00:13;-0.70;99.90
15407;DHT22;7802;51.568;6.364;2022-12-10T05:03:01;-0.90;99.90
15407;DHT22;7802;51.568;6.364;2022-12-10T05:05:48;-0.90;99.90
15407;DHT22;7802;51.568;6.364;2022-12-10T05:08:36;-1.00;99.90
15407;DHT22;7802;51.568;6.364;2022-12-10T05:11:26;-1.00;99.90
15407;DHT22;7802;51.568;6.364;2022-12-10T05:14:15;-1.10;99.90
15407;DHT22;7802;51.568;6.364;2022-12-10T05:17:02;-0.80;99.90
15407;DHT22;7802;51.568;6.364;2022-12-10T05:19:50;0.70;99.90
15407;DHT22;7802;51.568;6.364;2022-12-10T05:22:38;-1.20;99.90
15407;DHT22;7802;51.568;6.364;2022-12-10T05:25:43;-1.10;99.90
15407;DHT22;7802;51.568;6.364;2022-12-10T05:28:41;-1.00;99.90
15407;DHT22;7802;51.568;6.364;2022-12-10T05:31:29;-1.00;99.90
15407;DHT22;7802;51.568;6.364;2022-12-10T05:34:16;-0.90;99.90
15407;DHT22;7802;51.568;6.364;2022-12-10T05:37:04;-0.70;99.90
15407;DHT22;7802;51.568;6.364;2022-12-10T05:39:51;0.60;99.90
15407;DHT22;7802;51.568;6.364;2022-12-10T05:42:38;-0.60;99.90
15407;DHT22;7802;51.568;6.364;2022-12-10T05:45:25;-0.50;99.90
15407;DHT22;7802;51.568;6.364;2022-12-10T05:48:14;-0.40;99.90
15407;DHT22;7802;51.568;6.364;2022-12-10T05:51:03;-0.30;99.90
15407;DHT22;7802;51.568;6.364;2022-12-10T05:53:52;-0.30;99.90
15407;DHT22;7802;51.568;6.364;2022-12-10T05:56:39;1.60;99.90
15407;DHT22;7802;51.568;6.364;2022-12-10T05:59:26;-0.10;99.90
15407;DHT22;7802;51.568;6.364;2022-12-10T06:02:14;-0.10;99.90
15407;DHT22;7802;51.568;6.364;2022-12-10T06:05:01;1.20;99.90
15407;DHT22;7802;51.568;6.364;2022-12-10T06:07:48;1.00;99.90
15407;DHT22;7802;51.568;6.364;2022-12-10T06:10:37;1.80;99.90
15407;DHT22;7802;51.568;6.364;2022-12-10T06:13:24;0.00;99.90
15407;DHT22;7802;51.568;6.364;2022-12-10T06:16:13;0.20;99.90
15407;DHT22;7802;51.568;6.364;2022-12-10T06:19:01;0.10;99.90
15407;DHT22;7802;51.568;6.364;2022-12-10T06:21:48;0.10;99.90
15407;DHT22;7802;51.568;6.364;2022-12-10T06:24:35;2.00;99.90
15407;DHT22;7802;51.568;6.364;2022-12-10T06:27:23;1.10;99.90
15407;DHT22;7802;51.568;6.364;2022-12-10T06:30:11;0.20;99.90
15407;DHT22;7802;51.568;6.364;2022-12-10T06:32:58;0.20;99.90
15407;DHT22;7802;51.568;6.364;2022-12-10T06:35:45;2.30;99.90
15407;DHT22;7802;51.568;6.364;2022-12-10T06:38:32;0.10;99.90
15407;DHT22;7802;51.568;6.364;2022-12-10T06:41:19;2.30;99.90
15407;DHT22;7802;51.568;6.364;2022-12-10T06:44:07;0.10;99.90
15407;DHT22;7802;51.568;6.364;2022-12-10T06:46:55;1.10;99.90
15407;DHT22;7802;51.568;6.364;2022-12-10T06:49:42;0.20;99.90
15407;DHT22;7802;51.568;6.364;2022-12-10T06:52:29;0.20;99.90
15407;DHT22;7802;51.568;6.364;2022-12-10T06:55:16;0.30;99.90
15407;DHT22;7802;51.568;6.364;2022-12-10T06:58:03;0.20;99.90
15407;DHT22;7802;51.568;6.364;2022-12-10T07:00:51;0.30;99.90
15407;DHT22;7802;51.568;6.364;2022-12-10T07:03:38;0.30;99.90
15407;DHT22;7802;51.568;6.364;2022-12-10T07:06:26;0.30;99.90
15407;DHT22;7802;51.568;6.364;2022-12-10T07:09:25;0.30;99.90
15407;DHT22;7802;51.568;6.364;2022-12-10T07:12:12;0.30;99.90
15407;DHT22;7802;51.568;6.364;2022-12-10T07:14:59;0.30;99.90
15407;DHT22;7802;51.568;6.364;2022-12-10T07:17:47;0.30;99.90
15407;DHT22;7802;51.568;6.364;2022-12-10T07:20:34;0.30;99.90
15407;DHT22;7802;51.568;6.364;2022-12-10T07:23:21;0.30;99.90
15407;DHT22;7802;51.568;6.364;2022-12-10T07:26:08;0.30;99.90
15407;DHT22;7802;51.568;6.364;2022-12-10T07:28:55;0.40;99.90
15407;DHT22;7802;51.568;6.364;2022-12-10T07:31:43;1.00;99.90
15407;DHT22;7802;51.568;6.364;2022-12-10T07:34:31;0.30;99.90
15407;DHT22;7802;51.568;6.364;2022-12-10T07:37:18;0.20;99.90
15407;DHT22;7802;51.568;6.364;2022-12-10T07:40:07;0.30;99.90
15407;DHT22;7802;51.568;6.364;2022-12-10T07:42:54;0.30;99.90
15407;DHT22;7802;51.568;6.364;2022-12-10T07:45:41;0.30;99.90
15407;DHT22;7802;51.568;6.364;2022-12-10T07:48:28;1.20;99.90
15407;DHT22;7802;51.568;6.364;2022-12-10T07:51:18;0.50;99.90
15407;DHT22;7802;51.568;6.364;2022-12-10T07:54:06;2.60;99.90
15407;DHT22;7802;51.568;6.364;2022-12-10T07:56:54;0.50;99.90
15407;DHT22;7802;51.568;6.364;2022-12-10T07:59:41;0.50;99.90
15407;DHT22;7802;51.568;6.364;2022-12-10T08:02:28;0.60;99.90
15407;DHT22;7802;51.568;6.364;2022-12-10T08:05:15;0.60;99.90
15407;DHT22;7802;51.568;6.364;2022-12-10T08:08:04;0.50;99.90
15407;DHT22;7802;51.568;6.364;2022-12-10T08:10:54;1.40;99.90
15407;DHT22;7802;51.568;6.364;2022-12-10T08:13:41;0.60;99.90
15407;DHT22;7802;51.568;6.364;2022-12-10T08:16:29;0.70;99.90
15407;DHT22;7802;51.568;6.364;2022-12-10T08:19:17;0.80;99.90
15407;DHT22;7802;51.568;6.364;2022-12-10T08:22:10;2.60;99.90
15407;DHT22;7802;51.568;6.364;2022-12-10T08:24:58;0.70;99.90
15407;DHT22;7802;51.568;6.364;2022-12-10T08:27:46;1.40;99.90
15407;DHT22;7802;51.568;6.364;2022-12-10T08:30:32;0.80;99.90
15407;DHT22;7802;51.568;6.364;2022-12-10T08:33:20;0.80;99.90
15407;DHT22;7802;51.568;6.364;2022-12-10T08:36:08;0.80;99.90
15407;DHT22;7802;51.568;6.364;2022-12-10T08:38:55;0.80;99.90
15407;DHT22;7802;51.568;6.364;2022-12-10T08:41:44;0.80;99.90
15407;DHT22;7802;51.568;6.364;2022-12-10T08:44:32;2.90;99.90
15407;DHT22;7802;51.568;6.364;2022-12-10T08:47:19;0.70;99.90
15407;DHT22;7802;51.568;6.364;2022-12-10T08:50:06;0.70;99.90
15407;DHT22;7802;51.568;6.364;2022-12-10T08:52:54;0.80;99.90
15407;DHT22;7802;51.568;6.364;2022-12-10T08:55:42;1.10;99.90
15407;DHT22;7802;51.568;6.364;2022-12-10T08:58:37;2.20;99.90
15407;DHT22;7802;51.568;6.364;2022-12-10T09:01:24;0.70;99.90
15407;DHT22;7802;51.568;6.364;2022-12-10T09:04:11;1.70;99.90
15407;DHT22;7802;51.568;6.364;2022-12-10T09:07:00;0.90;99.90
15407;DHT22;7802;51.568;6.364;2022-12-10T09:09:48;1.20;99.90
15407;DHT22;7802;51.568;6.364;2022-12-10T09:12:35;2.40;99.90
15407;DHT22;7802;51.568;6.364;2022-12-10T09:15:22;0.90;99.90
15407;DHT22;7802;51.568;6.364;2022-12-10T09:18:35;1.20;99.90
15407;DHT22;7802;51.568;6.364;2022-12-10T09:21:22;1.00;99.90
15407;DHT22;7802;51.568;6.364;2022-12-10T09:24:10;1.00;99.90
15407;DHT22;7802;51.568;6.364;2022-12-10T09:26:56;1.80;99.90
15407;DHT22;7802;51.568;6.364;2022-12-10T09:29:44;1.00;99.90
15407;DHT22;7802;51.568;6.364;2022-12-10T09:32:31;1.00;99.90
15407;DHT22;7802;51.568;6.364;2022-12-10T09:35:19;1.40;99.90
15407;DHT22;7802;51.568;6.364;2022-12-10T09:38:06;1.10;99.90
15407;DHT22;7802;51.568;6.364;2022-12-10T09:40:59;2.40;99.90
15407;DHT22;7802;51.568;6.364;2022-12-10T09:43:50;1.10;99.90
15407;DHT22;7802;51.568;6.364;2022-12-10T09:46:46;1.60;99.90
15407;DHT22;7802;51.568;6.364;2022-12-10T09:49:44;1.10;99.90
15407;DHT22;7802;51.568;6.364;2022-12-10T09:52:36;2.30;99.90
15407;DHT22;7802;51.568;6.364;2022-12-10T09:55:31;3.10;99.90
15407;DHT22;7802;51.568;6.364;2022-12-10T09:58:21;1.20;99.90
15407;DHT22;7802;51.568;6.364;2022-12-10T10:01:18;1.90;99.90
15407;DHT22;7802;51.568;6.364;2022-12-10T10:04:06;1.10;99.90
15407;DHT22;7802;51.568;6.364;2022-12-10T10:06:54;1.00;99.90
15407;DHT22;7802;51.568;6.364;2022-12-10T10:09:41;1.00;99.90
15407;DHT22;7802;51.568;6.364;2022-12-10T10:12:31;1.00;99.90
15407;DHT22;7802;51.568;6.364;2022-12-10T10:15:22;1.00;99.90
15407;DHT22;7802;51.568;6.364;2022-12-10T10:18:15;1.10;99.90
15407;DHT22;7802;51.568;6.364;2022-12-10T10:21:05;1.10;99.90
15407;DHT22;7802;51.568;6.364;2022-12-10T10:23:54;1.30;99.90
15407;DHT22;7802;51.568;6.364;2022-12-10T10:26:42;3.10;99.90
15407;DHT22;7802;51.568;6.364;2022-12-10T10:29:30;1.10;99.90
15407;DHT22;7802;51.568;6.364;2022-12-10T10:32:18;1.10;99.90
15407;DHT22;7802;51.568;6.364;2022-12-10T10:35:06;1.20;99.90
15407;DHT22;7802;51.568;6.364;2022-12-10T10:37:58;1.20;99.90
15407;DHT22;7802;51.568;6.364;2022-12-10T10:40:48;1.10;99.90
15407;DHT22;7802;51.568;6.364;2022-12-10T10:43:40;2.80;99.90
15407;DHT22;7802;51.568;6.364;2022-12-10T10:46:28;1.10;99.90
15407;DHT22;7802;51.568;6.364;2022-12-10T10:49:22;3.60;99.90
15407;DHT22;7802;51.568;6.364;2022-12-10T10:52:14;1.40;99.90
15407;DHT22;7802;51.568;6.364;2022-12-10T10:55:03;1.30;99.90
15407;DHT22;7802;51.568;6.364;2022-12-10T10:57:52;1.30;99.90
15407;DHT22;7802;51.568;6.364;2022-12-10T11:00:39;1.40;99.90
15407;DHT22;7802;51.568;6.364;2022-12-10T11:03:28;1.30;99.90
15407;DHT22;7802;51.568;6.364;2022-12-10T11:06:16;1.40;99.90
15407;DHT22;7802;51.568;6.364;2022-12-10T11:09:04;1.40;99.90
15407;DHT22;7802;51.568;6.364;2022-12-10T11:11:58;1.50;99.90
15407;DHT22;7802;51.568;6.364;2022-12-10T11:14:46;2.20;99.90
15407;DHT22;7802;51.568;6.364;2022-12-10T11:17:34;1.60;99.90
15407;DHT22;7802;51.568;6.364;2022-12-10T11:20:23;1.90;99.90
15407;DHT22;7802;51.568;6.364;2022-12-10T11:23:13;1.70;99.90
15407;DHT22;7802;51.568;6.364;2022-12-10T11:29:45;1.80;99.90
15407;DHT22;7802;51.568;6.364;2022-12-10T11:32:46;3.10;99.90
15407;DHT22;7802;51.568;6.364;2022-12-10T11:35:43;1.80;99.90
15407;DHT22;7802;51.568;6.364;2022-12-10T11:38:41;1.90;99.90
15407;DHT22;7802;51.568;6.364;2022-12-10T11:41:37;3.30;99.90
15407;DHT22;7802;51.568;6.364;2022-12-10T11:44:31;1.90;99.90
15407;DHT22;7802;51.568;6.364;2022-12-10T11:47:29;2.00;99.90
15407;DHT22;7802;51.568;6.364;2022-12-10T11:50:26;2.00;99.90
15407;DHT22;7802;51.568;6.364;2022-12-10T11:53:36;3.80;99.90
15407;DHT22;7802;51.568;6.364;2022-12-10T11:56:31;3.40;99.90
15407;DHT22;7802;51.568;6.364;2022-12-10T11:59:25;2.00;99.90
15407;DHT22;7802;51.568;6.364;2022-12-10T12:05:59;2.30;99.90
15407;DHT22;7802;51.568;6.364;2022-12-10T12:08:59;3.00;99.90
15407;DHT22;7802;51.568;6.364;2022-12-10T12:11:55;2.10;99.90
15407;DHT22;7802;51.568;6.364;2022-12-10T12:14:49;2.20;99.90
15407;DHT22;7802;51.568;6.364;2022-12-10T12:17:41;3.60;99.90
15407;DHT22;7802;51.568;6.364;2022-12-10T12:20:33;2.30;99.90
15407;DHT22;7802;51.568;6.364;2022-12-10T12:23:28;3.30;99.90
15407;DHT22;7802;51.568;6.364;2022-12-10T12:26:20;2.30;99.90
15407;DHT22;7802;51.568;6.364;2022-12-10T12:29:14;3.50;99.90
15407;DHT22;7802;51.568;6.364;2022-12-10T12:32:09;2.90;99.90
15407;DHT22;7802;51.568;6.364;2022-12-10T12:35:01;4.00;99.90
15407;DHT22;7802;51.568;6.364;2022-12-10T12:37:58;2.30;99.90
15407;DHT22;7802;51.568;6.364;2022-12-10T12:40:50;2.40;99.90
15407;DHT22;7802;51.568;6.364;2022-12-10T12:43:45;2.50;99.90
15407;DHT22;7802;51.568;6.364;2022-12-10T12:46:38;2.80;99.90
15407;DHT22;7802;51.568;6.364;2022-12-10T12:49:29;2.50;99.90
15407;DHT22;7802;51.568;6.364;2022-12-10T12:52:28;2.60;99.90
15407;DHT22;7802;51.568;6.364;2022-12-10T12:55:22;2.60;99.90
15407;DHT22;7802;51.568;6.364;2022-12-10T12:58:17;2.60;99.90
15407;DHT22;7802;51.568;6.364;2022-12-10T13:01:16;3.50;99.90
15407;DHT22;7802;51.568;6.364;2022-12-10T13:04:06;2.50;99.90
15407;DHT22;7802;51.568;6.364;2022-12-10T13:07:09;2.80;99.90
15407;DHT22;7802;51.568;6.364;2022-12-10T13:10:10;2.50;99.90
15407;DHT22;7802;51.568;6.364;2022-12-10T13:13:22;2.70;99.90
15407;DHT22;7802;51.568;6.364;2022-12-10T13:16:36;2.40;99.90
15407;DHT22;7802;51.568;6.364;2022-12-10T13:19:32;2.40;99.90
15407;DHT22;7802;51.568;6.364;2022-12-10T13:22:42;2.40;99.90
15407;DHT22;7802;51.568;6.364;2022-12-10T13:25:39;2.30;99.90
15407;DHT22;7802;51.568;6.364;2022-12-10T13:28:31;2.40;99.90
15407;DHT22;7802;51.568;6.364;2022-12-10T13:31:36;3.50;99.90
15407;DHT22;7802;51.568;6.364;2022-12-10T13:34:31;2.40;99.90
15407;DHT22;7802;51.568;6.364;2022-12-10T13:37:28;2.30;99.90
15407;DHT22;7802;51.568;6.364;2022-12-10T13:40:23;2.50;99.90
15407;DHT22;7802;51.568;6.364;2022-12-10T13:43:25;2.20;99.90
15407;DHT22;7802;51.568;6.364;2022-12-10T13:46:33;2.30;99.90
15407;DHT22;7802;51.568;6.364;2022-12-10T13:49:23;2.20;99.90
15407;DHT22;7802;51.568;6.364;2022-12-10T13:52:15;2.20;99.90
15407;DHT22;7802;51.568;6.364;2022-12-10T13:55:20;4.00;99.90
15407;DHT22;7802;51.568;6.364;2022-12-10T13:58:37;2.20;99.90
15407;DHT22;7802;51.568;6.364;2022-12-10T14:01:36;2.10;99.90
15407;DHT22;7802;51.568;6.364;2022-12-10T14:04:46;2.60;99.90
15407;DHT22;7802;51.568;6.364;2022-12-10T14:07:37;2.20;99.90
15407;DHT22;7802;51.568;6.364;2022-12-10T14:10:29;2.20;99.90
15407;DHT22;7802;51.568;6.364;2022-12-10T14:13:30;4.20;99.90
15407;DHT22;7802;51.568;6.364;2022-12-10T14:16:21;2.10;99.90
15407;DHT22;7802;51.568;6.364;2022-12-10T14:19:14;2.60;99.90
15407;DHT22;7802;51.568;6.364;2022-12-10T14:22:05;3.10;99.90
15407;DHT22;7802;51.568;6.364;2022-12-10T14:24:52;2.70;99.90
15407;DHT22;7802;51.568;6.364;2022-12-10T14:27:39;2.10;99.90
15407;DHT22;7802;51.568;6.364;2022-12-10T14:30:28;1.90;99.90
15407;DHT22;7802;51.568;6.364;2022-12-10T14:33:17;1.90;99.90
15407;DHT22;7802;51.568;6.364;2022-12-10T14:36:12;1.90;99.90
15407;DHT22;7802;51.568;6.364;2022-12-10T14:39:01;1.90;99.90
15407;DHT22;7802;51.568;6.364;2022-12-10T14:41:50;2.40;99.90
15407;DHT22;7802;51.568;6.364;2022-12-10T14:44:39;2.90;99.90
15407;DHT22;7802;51.568;6.364;2022-12-10T14:47:27;1.90;99.90
15407;DHT22;7802;51.568;6.364;2022-12-10T14:50:18;1.90;99.90
15407;DHT22;7802;51.568;6.364;2022-12-10T14:53:13;1.90;99.90
15407;DHT22;7802;51.568;6.364;2022-12-10T14:56:02;1.90;99.90
15407;DHT22;7802;51.568;6.364;2022-12-10T14:58:54;1.80;99.90
15407;DHT22;7802;51.568;6.364;2022-12-10T15:01:44;3.20;99.90
15407;DHT22;7802;51.568;6.364;2022-12-10T15:04:41;3.60;99.90
15407;DHT22;7802;51.568;6.364;2022-12-10T15:07:33;2.90;99.90
15407;DHT22;7802;51.568;6.364;2022-12-10T15:10:26;1.60;99.90
15407;DHT22;7802;51.568;6.364;2022-12-10T15:13:18;1.60;99.90
15407;DHT22;7802;51.568;6.364;2022-12-10T15:16:16;2.00;99.90
15407;DHT22;7802;51.568;6.364;2022-12-10T15:19:08;1.60;99.90
15407;DHT22;7802;51.568;6.364;2022-12-10T15:21:59;2.00;99.90
15407;DHT22;7802;51.568;6.364;2022-12-10T15:24:46;1.60;99.90
15407;DHT22;7802;51.568;6.364;2022-12-10T15:27:34;1.60;99.90
15407;DHT22;7802;51.568;6.364;2022-12-10T15:30:23;3.10;99.90
15407;DHT22;7802;51.568;6.364;2022-12-10T15:33:27;1.60;99.90
15407;DHT22;7802;51.568;6.364;2022-12-10T15:36:36;1.60;99.90
15407;DHT22;7802;51.568;6.364;2022-12-10T15:39:26;2.10;99.90
15407;DHT22;7802;51.568;6.364;2022-12-10T15:42:39;2.40;99.90
15407;DHT22;7802;51.568;6.364;2022-12-10T15:45:38;1.50;99.90
15407;DHT22;7802;51.568;6.364;2022-12-10T15:48:29;1.40;99.90
15407;DHT22;7802;51.568;6.364;2022-12-10T15:51:16;1.70;99.90
15407;DHT22;7802;51.568;6.364;2022-12-10T15:54:18;2.00;99.90
15407;DHT22;7802;51.568;6.364;2022-12-10T15:57:12;1.40;99.90
15407;DHT22;7802;51.568;6.364;2022-12-10T16:00:02;3.00;99.90
15407;DHT22;7802;51.568;6.364;2022-12-10T16:03:00;1.40;99.90
15407;DHT22;7802;51.568;6.364;2022-12-10T16:05:48;1.40;99.90
15407;DHT22;7802;51.568;6.364;2022-12-10T16:08:36;1.40;99.90
15407;DHT22;7802;51.568;6.364;2022-12-10T16:11:23;1.40;99.90
15407;DHT22;7802;51.568;6.364;2022-12-10T16:14:11;1.30;99.90
15407;DHT22;7802;51.568;6.364;2022-12-10T16:17:00;3.20;99.90
15407;DHT22;7802;51.568;6.364;2022-12-10T16:19:47;1.30;99.90
15407;DHT22;7802;51.568;6.364;2022-12-10T16:22:34;1.40;99.90
15407;DHT22;7802;51.568;6.364;2022-12-10T16:25:23;2.70;99.90
15407;DHT22;7802;51.568;6.364;2022-12-10T16:28:11;2.80;99.90
15407;DHT22;7802;51.568;6.364;2022-12-10T16:30:59;1.90;99.90
15407;DHT22;7802;51.568;6.364;2022-12-10T16:33:47;3.20;99.90
15407;DHT22;7802;51.568;6.364;2022-12-10T16:36:35;2.20;99.90
15407;DHT22;7802;51.568;6.364;2022-12-10T16:39:22;1.30;99.90
15407;DHT22;7802;51.568;6.364;2022-12-10T16:42:16;1.50;99.90
15407;DHT22;7802;51.568;6.364;2022-12-10T16:45:12;2.50;99.90
15407;DHT22;7802;51.568;6.364;2022-12-10T16:48:00;1.30;99.90
15407;DHT22;7802;51.568;6.364;2022-12-10T16:50:50;1.40;99.90
15407;DHT22;7802;51.568;6.364;2022-12-10T16:53:37;3.40;99.90
15407;DHT22;7802;51.568;6.364;2022-12-10T16:56:25;3.30;99.90
15407;DHT22;7802;51.568;6.364;2022-12-10T16:59:12;1.30;99.90
15407;DHT22;7802;51.568;6.364;2022-12-10T17:01:59;3.50;99.90
15407;DHT22;7802;51.568;6.364;2022-12-10T17:04:46;1.30;99.90
15407;DHT22;7802;51.568;6.364;2022-12-10T17:07:34;1.20;99.90
15407;DHT22;7802;51.568;6.364;2022-12-10T17:10:22;1.20;99.90
15407;DHT22;7802;51.568;6.364;2022-12-10T17:13:29;1.20;99.90
15407;DHT22;7802;51.568;6.364;2022-12-10T17:16:21;2.00;99.90
15407;DHT22;7802;51.568;6.364;2022-12-10T17:19:11;1.30;99.90
15407;DHT22;7802;51.568;6.364;2022-12-10T17:21:59;1.20;99.90
15407;DHT22;7802;51.568;6.364;2022-12-10T17:24:46;2.50;99.90
15407;DHT22;7802;51.568;6.364;2022-12-10T17:27:34;2.40;99.90
15407;DHT22;7802;51.568;6.364;2022-12-10T17:30:25;3.20;99.90
15407;DHT22;7802;51.568;6.364;2022-12-10T17:33:12;1.70;99.90
15407;DHT22;7802;51.568;6.364;2022-12-10T17:36:00;2.70;99.90
15407;DHT22;7802;51.568;6.364;2022-12-10T17:38:47;1.10;99.90
15407;DHT22;7802;51.568;6.364;2022-12-10T17:41:35;1.10;99.90
15407;DHT22;7802;51.568;6.364;2022-12-10T17:44:23;1.20;99.90
15407;DHT22;7802;51.568;6.364;2022-12-10T17:47:16;1.70;99.90
15407;DHT22;7802;51.568;6.364;2022-12-10T17:50:15;1.10;99.90
15407;DHT22;7802;51.568;6.364;2022-12-10T17:53:04;2.20;99.90
15407;DHT22;7802;51.568;6.364;2022-12-10T17:55:58;2.10;99.90
15407;DHT22;7802;51.568;6.364;2022-12-10T17:58:47;1.80;99.90
15407;DHT22;7802;51.568;6.364;2022-12-10T18:01:35;2.70;99.90
15407;DHT22;7802;51.568;6.364;2022-12-10T18:04:22;1.10;99.90
15407;DHT22;7802;51.568;6.364;2022-12-10T18:07:11;1.00;99.90
15407;DHT22;7802;51.568;6.364;2022-12-10T18:09:58;1.00;99.90
15407;DHT22;7802;51.568;6.364;2022-12-10T18:12:46;2.40;99.90
15407;DHT22;7802;51.568;6.364;2022-12-10T18:15:35;1.60;99.90
15407;DHT22;7802;51.568;6.364;2022-12-10T18:18:22;1.00;99.90
15407;DHT22;7802;51.568;6.364;2022-12-10T18:21:12;1.00;99.90
15407;DHT22;7802;51.568;6.364;2022-12-10T18:24:00;1.80;99.90
15407;DHT22;7802;51.568;6.364;2022-12-10T18:26:47;1.00;99.90
15407;DHT22;7802;51.568;6.364;2022-12-10T18:29:34;1.00;99.90
15407;DHT22;7802;51.568;6.364;2022-12-10T18:32:22;0.90;99.90
15407;DHT22;7802;51.568;6.364;2022-12-10T18:35:12;2.40;99.90
15407;DHT22;7802;51.568;6.364;2022-12-10T18:37:59;1.00;99.90